Time;durP1;ratioP1;P1;durP2;ratioP2;P2;SDS_P1;SDS_P2;PMS_P1;PMS_P2;Temp;Humidity;BMP_temperature;BMP_pressure;BME280_temperature;BME280_humidity;BME280_pressure;Samples;Min_cycle;Max_cycle;Signal;HPM_P1;HPM_P2
2022/04/06 00:01:49;;;;;;;27.33;6.07;;;;;;;;;;5067649;28;20128;-67
2022/04/06 00:04:16;;;;;;;28.23;6.40;;;;;;;;;;5068165;28;20102;-67
2022/04/06 00:06:42;;;;;;;24.30;6.15;;;;;;;;;;5067130;28;20057;-67
2022/04/06 00:09:16;;;;;;;24.90;5.97;;;;;;;;;;5067602;28;20216;-67
2022/04/06 00:11:42;;;;;;;32.45;6.32;;;;;;;;;;5067916;28;20521;-67
2022/04/06 00:14:08;;;;;;;26.50;6.60;;;;;;;;;;5080119;28;20568;-67
2022/04/06 00:16:35;;;;;;;33.00;6.90;;;;;;;;;;5087700;28;20059;-67
2022/04/06 00:19:02;;;;;;;31.70;7.72;;;;;;;;;;5087858;28;20094;-67
2022/04/06 00:21:28;;;;;;;25.15;6.53;;;;;;;;;;5087729;28;20139;-67
2022/04/06 00:23:54;;;;;;;21.70;6.07;;;;;;;;;;5087891;28;20080;-67
2022/04/06 00:26:21;;;;;;;31.38;6.85;;;;;;;;;;5067617;28;20111;-67
2022/04/06 00:28:47;;;;;;;26.98;7.50;;;;;;;;;;5068606;28;20076;-67
2022/04/06 00:31:14;;;;;;;23.52;6.60;;;;;;;;;;5077125;28;20148;-67
2022/04/06 00:33:40;;;;;;;30.52;7.30;;;;;;;;;;5084536;28;20513;-67
2022/04/06 00:36:07;;;;;;;34.15;7.70;;;;;;;;;;5086833;28;20056;-67
2022/04/06 00:38:33;;;;;;;33.20;7.30;;;;;;;;;;5087663;28;20079;-67
2022/04/06 00:40:59;;;;;;;26.48;6.75;;;;;;;;;;5087417;28;20057;-67
2022/04/06 00:43:26;;;;;;;33.75;7.82;;;;;;;;;;5085332;28;20052;-67
2022/04/06 00:45:52;;;;;;;31.08;7.88;;;;;;;;;;5086815;28;20048;-67
2022/04/06 00:48:19;;;;;;;26.65;7.85;;;;;;;;;;5078913;28;20061;-67
2022/04/06 00:50:45;;;;;;;30.25;7.78;;;;;;;;;;5066936;28;20144;-67
2022/04/06 00:53:12;;;;;;;37.58;8.55;;;;;;;;;;5066813;28;20052;-67
2022/04/06 00:55:39;;;;;;;31.83;8.73;;;;;;;;;;5067155;28;20052;-67
2022/04/06 00:58:06;;;;;;;25.85;8.20;;;;;;;;;;5066553;28;20081;-67
2022/04/06 01:00:33;;;;;;;24.17;7.20;;;;;;;;;;5067860;28;20132;-67
2022/04/06 01:02:59;;;;;;;37.05;8.63;;;;;;;;;;5067475;28;20072;-67
2022/04/06 01:05:26;;;;;;;32.13;9.48;;;;;;;;;;5066536;28;20656;-67
2022/04/06 01:07:53;;;;;;;26.92;7.75;;;;;;;;;;5071653;28;20069;-67
2022/04/06 01:10:19;;;;;;;27.05;7.05;;;;;;;;;;5086872;28;20160;-67
2022/04/06 01:12:46;;;;;;;33.90;9.02;;;;;;;;;;5087194;28;20048;-67
2022/04/06 01:15:13;;;;;;;33.95;7.70;;;;;;;;;;5069212;28;20622;-67
2022/04/06 01:17:39;;;;;;;29.67;7.32;;;;;;;;;;5066526;28;20057;-67
2022/04/06 01:20:07;;;;;;;24.35;6.97;;;;;;;;;;5065811;28;20168;-67
2022/04/06 01:22:34;;;;;;;26.25;7.50;;;;;;;;;;5067037;28;20564;-67
2022/04/06 01:25:01;;;;;;;26.45;8.00;;;;;;;;;;5079888;28;20536;-67
2022/04/06 01:27:27;;;;;;;28.77;7.90;;;;;;;;;;5085872;28;20060;-67
2022/04/06 01:29:54;;;;;;;24.50;7.47;;;;;;;;;;5072998;28;20172;-67
2022/04/06 01:32:22;;;;;;;28.20;7.63;;;;;;;;;;5066458;28;20187;-67
2022/04/06 01:34:48;;;;;;;23.52;7.40;;;;;;;;;;5066301;28;20495;-67
2022/04/06 01:37:15;;;;;;;27.40;7.28;;;;;;;;;;5075828;28;20143;-67
2022/04/06 01:39:42;;;;;;;26.02;7.82;;;;;;;;;;5075183;28;20556;-67
2022/04/06 01:42:09;;;;;;;29.15;7.97;;;;;;;;;;5066766;28;20057;-67
2022/04/06 01:44:36;;;;;;;28.65;8.13;;;;;;;;;;5066042;28;20063;-67
2022/04/06 01:47:04;;;;;;;28.92;6.68;;;;;;;;;;5066861;28;21025;-67
2022/04/06 01:52:15;;;;;;;18.25;6.95;;;;;;;;;;5066444;28;20847;-67
2022/04/06 01:54:45;;;;;;;26.95;7.28;;;;;;;;;;5066582;28;20053;-67
2022/04/06 01:57:12;;;;;;;27.17;7.05;;;;;;;;;;5066412;28;20139;-67
2022/04/06 01:59:38;;;;;;;17.17;5.70;;;;;;;;;;5066185;28;20053;-67
2022/04/06 02:02:05;;;;;;;21.50;6.00;;;;;;;;;;5065491;28;20080;-67
2022/04/06 02:04:32;;;;;;;18.05;5.22;;;;;;;;;;5069333;28;20068;-67
2022/04/06 02:06:58;;;;;;;24.48;5.97;;;;;;;;;;5090264;28;20482;-67
2022/04/06 02:09:25;;;;;;;25.98;5.72;;;;;;;;;;5088433;28;20143;-67
2022/04/06 02:11:51;;;;;;;19.17;5.07;;;;;;;;;;5089496;28;20056;-67
2022/04/06 02:14:17;;;;;;;23.50;6.53;;;;;;;;;;5090207;28;20059;-67
2022/04/06 02:16:44;;;;;;;20.92;5.68;;;;;;;;;;5089641;28;20053;-67
2022/04/06 02:19:10;;;;;;;27.13;5.68;;;;;;;;;;5082572;28;20055;-67
2022/04/06 02:21:36;;;;;;;21.13;5.63;;;;;;;;;;5087279;28;20060;-67
2022/04/06 02:24:03;;;;;;;17.33;5.03;;;;;;;;;;5089261;28;20520;-67
2022/04/06 02:26:29;;;;;;;22.13;5.60;;;;;;;;;;5070236;28;20109;-67
2022/04/06 02:28:56;;;;;;;20.77;5.30;;;;;;;;;;5078613;28;20056;-67
2022/04/06 02:31:23;;;;;;;18.98;4.80;;;;;;;;;;5089008;28;20056;-67
2022/04/06 02:33:49;;;;;;;19.58;4.57;;;;;;;;;;5089663;28;20981;-67
2022/04/06 02:36:16;;;;;;;20.17;4.97;;;;;;;;;;5071558;28;20057;-67
2022/04/06 02:38:42;;;;;;;18.73;5.35;;;;;;;;;;5068508;28;20053;-67
2022/04/06 02:41:08;;;;;;;21.27;4.63;;;;;;;;;;5068837;28;20148;-67
2022/04/06 02:43:35;;;;;;;24.85;5.38;;;;;;;;;;5069277;28;20057;-67
2022/04/06 02:46:02;;;;;;;18.58;4.90;;;;;;;;;;5071477;28;20140;-67
2022/04/06 02:48:28;;;;;;;14.75;4.07;;;;;;;;;;5088398;28;20181;-67
2022/04/06 02:50:55;;;;;;;18.15;4.57;;;;;;;;;;5089098;28;20859;-67
2022/04/06 02:53:22;;;;;;;20.48;4.20;;;;;;;;;;5088422;28;20632;-67
2022/04/06 02:55:49;;;;;;;19.13;4.13;;;;;;;;;;5088867;28;20106;-67
2022/04/06 02:58:15;;;;;;;13.80;3.90;;;;;;;;;;5085767;28;20456;-67
2022/04/06 03:00:41;;;;;;;16.45;4.03;;;;;;;;;;5089217;28;20151;-67
2022/04/06 03:03:08;;;;;;;17.08;4.13;;;;;;;;;;5088726;28;20061;-67
2022/04/06 03:05:34;;;;;;;15.73;3.85;;;;;;;;;;5089187;28;20059;-67
2022/04/06 03:08:00;;;;;;;18.63;3.72;;;;;;;;;;5082918;28;20053;-67
2022/04/06 03:10:27;;;;;;;13.85;3.20;;;;;;;;;;5068042;28;20060;-67
2022/04/06 03:12:53;;;;;;;15.55;3.63;;;;;;;;;;5068716;28;20509;-66
2022/04/06 03:15:25;;;;;;;15.68;4.00;;;;;;;;;;5079168;28;20063;-67
2022/04/06 03:17:52;;;;;;;14.18;2.95;;;;;;;;;;5068615;28;20533;-67
2022/04/06 03:20:18;;;;;;;13.30;3.83;;;;;;;;;;5068805;28;20080;-67
2022/04/06 03:22:44;;;;;;;14.10;3.05;;;;;;;;;;5068357;28;20092;-67
2022/04/06 03:25:11;;;;;;;19.17;3.78;;;;;;;;;;5068007;28;20574;-66
2022/04/06 03:27:37;;;;;;;14.95;3.67;;;;;;;;;;5067976;28;20155;-67
2022/04/06 03:30:04;;;;;;;14.45;3.13;;;;;;;;;;5068368;28;20088;-67
2022/04/06 03:32:31;;;;;;;16.55;3.15;;;;;;;;;;5068280;28;20524;-67
2022/04/06 03:34:57;;;;;;;13.50;3.22;;;;;;;;;;5068027;28;20080;-67
2022/04/06 03:37:24;;;;;;;14.50;3.78;;;;;;;;;;5068304;28;20140;-67
2022/04/06 03:39:50;;;;;;;14.23;2.63;;;;;;;;;;5085724;28;20044;-67
2022/04/06 03:42:16;;;;;;;15.73;3.00;;;;;;;;;;5087210;28;20063;-67
2022/04/06 03:44:43;;;;;;;12.75;2.90;;;;;;;;;;5088394;28;20148;-67
2022/04/06 03:47:09;;;;;;;14.27;2.55;;;;;;;;;;5077574;28;20053;-67
2022/04/06 03:49:36;;;;;;;11.45;2.50;;;;;;;;;;5067827;28;20062;-67
2022/04/06 03:52:02;;;;;;;10.38;2.90;;;;;;;;;;5068229;28;20053;-67
2022/04/06 03:54:28;;;;;;;9.55;2.55;;;;;;;;;;5067124;28;20051;-66
2022/04/06 03:56:55;;;;;;;9.38;3.35;;;;;;;;;;5075068;28;20052;-66
2022/04/06 03:59:21;;;;;;;13.10;2.78;;;;;;;;;;5087048;28;20072;-67
2022/04/06 04:01:47;;;;;;;14.63;2.53;;;;;;;;;;5086107;28;20143;-67
2022/04/06 04:04:14;;;;;;;11.90;2.20;;;;;;;;;;5068020;28;20052;-67
2022/04/06 04:06:40;;;;;;;10.32;2.97;;;;;;;;;;5067482;28;20120;-67
2022/04/06 04:09:07;;;;;;;10.05;2.22;;;;;;;;;;5075697;28;20162;-67
2022/04/06 04:11:33;;;;;;;13.35;2.72;;;;;;;;;;5070728;28;20139;-67
2022/04/06 04:14:00;;;;;;;9.90;2.40;;;;;;;;;;5067042;28;20609;-67
2022/04/06 04:16:26;;;;;;;7.80;1.80;;;;;;;;;;5067217;28;20071;-67
2022/04/06 04:18:52;;;;;;;8.60;2.17;;;;;;;;;;5070659;28;20045;-67
2022/04/06 04:21:31;;;;;;;10.00;2.38;;;;;;;;;;5073475;28;20215;-67
2022/04/06 04:24:01;;;;;;;11.20;2.58;;;;;;;;;;5067656;28;20049;-67
2022/04/06 04:26:27;;;;;;;11.05;2.78;;;;;;;;;;5067248;28;20140;-67
2022/04/06 04:28:54;;;;;;;11.93;2.70;;;;;;;;;;5070279;28;20511;-67
2022/04/06 04:31:21;;;;;;;12.80;2.00;;;;;;;;;;5067176;28;20056;-67
2022/04/06 04:33:47;;;;;;;13.68;2.47;;;;;;;;;;5067454;28;20154;-67
2022/04/06 04:36:13;;;;;;;15.45;2.05;;;;;;;;;;5066990;28;20521;-67
2022/04/06 04:38:40;;;;;;;9.85;2.10;;;;;;;;;;5067604;28;20080;-67
2022/04/06 04:41:06;;;;;;;8.73;2.17;;;;;;;;;;5076293;28;20131;-67
2022/04/06 04:43:33;;;;;;;12.30;2.13;;;;;;;;;;5087686;28;20144;-67
2022/04/06 04:45:59;;;;;;;14.45;1.90;;;;;;;;;;5084176;28;20563;-67
2022/04/06 04:48:25;;;;;;;8.45;2.10;;;;;;;;;;5086655;28;20533;-66
2022/04/06 04:50:52;;;;;;;14.55;2.55;;;;;;;;;;5078142;28;20067;-67
2022/04/06 04:53:18;;;;;;;15.88;2.53;;;;;;;;;;5075404;28;20053;-66
2022/04/06 04:55:45;;;;;;;14.68;2.17;;;;;;;;;;5087162;28;20526;-67
2022/04/06 04:58:11;;;;;;;15.32;2.25;;;;;;;;;;5087098;28;20534;-67
2022/04/06 05:00:37;;;;;;;19.75;2.97;;;;;;;;;;5087400;28;20058;-66
2022/04/06 05:03:05;;;;;;;12.23;2.22;;;;;;;;;;5085855;28;20116;-67
2022/04/06 05:05:31;;;;;;;10.38;2.55;;;;;;;;;;5087168;28;20048;-66
2022/04/06 05:07:59;;;;;;;13.15;2.67;;;;;;;;;;5087458;28;20597;-67
2022/04/06 05:10:26;;;;;;;11.73;2.38;;;;;;;;;;5086802;28;20102;-66
2022/04/06 05:12:52;;;;;;;14.90;2.85;;;;;;;;;;5084356;28;20055;-67
2022/04/06 05:15:19;;;;;;;12.48;2.08;;;;;;;;;;5082390;28;20068;-67
2022/04/06 05:17:46;;;;;;;14.75;3.20;;;;;;;;;;5066856;28;20052;-66
2022/04/06 05:20:12;;;;;;;15.05;2.65;;;;;;;;;;5066433;28;20053;-67
2022/04/06 05:22:39;;;;;;;12.50;3.17;;;;;;;;;;5081274;28;20094;-66
2022/04/06 05:25:07;;;;;;;12.88;2.83;;;;;;;;;;5087210;28;20139;-67
2022/04/06 05:27:43;;;;;;;8.20;2.25;;;;;;;;;;5086804;28;20135;-66
2022/04/06 05:30:10;;;;;;;12.15;2.90;;;;;;;;;;5086852;28;20136;-67
2022/04/06 05:32:36;;;;;;;14.63;2.85;;;;;;;;;;5085313;28;20536;-66
2022/04/06 05:35:03;;;;;;;13.60;2.67;;;;;;;;;;5067283;28;20049;-67
2022/04/06 05:37:32;;;;;;;11.48;2.63;;;;;;;;;;5066086;28;20511;-67
2022/04/06 05:40:00;;;;;;;22.48;2.97;;;;;;;;;;5069373;28;20931;-67
2022/04/06 05:42:26;;;;;;;20.50;2.72;;;;;;;;;;5070274;28;20107;-67
2022/04/06 05:44:52;;;;;;;14.75;3.53;;;;;;;;;;5073901;28;20563;-66
2022/04/06 05:47:19;;;;;;;13.90;2.83;;;;;;;;;;5075131;28;20143;-67
2022/04/06 05:49:45;;;;;;;8.38;2.92;;;;;;;;;;5072743;28;20947;-66
2022/04/06 05:52:11;;;;;;;9.00;2.67;;;;;;;;;;5069673;28;20053;-67
2022/04/06 05:54:38;;;;;;;15.15;2.75;;;;;;;;;;5069150;28;20148;-67
2022/04/06 05:57:04;;;;;;;11.52;2.85;;;;;;;;;;5069214;28;20572;-68
2022/04/06 05:59:30;;;;;;;13.10;2.80;;;;;;;;;;5071724;28;20487;-67
2022/04/06 06:01:57;;;;;;;9.00;2.70;;;;;;;;;;5085559;28;20143;-67
2022/04/06 06:04:23;;;;;;;11.07;2.67;;;;;;;;;;5089848;28;20539;-67
2022/04/06 06:06:50;;;;;;;15.00;2.75;;;;;;;;;;5082872;28;20429;-67
2022/04/06 06:09:16;;;;;;;14.48;3.33;;;;;;;;;;5071415;28;20555;-67
2022/04/06 06:11:42;;;;;;;18.52;3.30;;;;;;;;;;5073263;28;20515;-67
2022/04/06 06:14:09;;;;;;;11.90;3.35;;;;;;;;;;5069007;28;20092;-67
2022/04/06 06:16:35;;;;;;;16.63;3.78;;;;;;;;;;5075251;28;20594;-67
2022/04/06 06:19:02;;;;;;;14.18;2.95;;;;;;;;;;5090703;28;20048;-67
2022/04/06 06:21:31;;;;;;;15.15;3.88;;;;;;;;;;5090002;28;20088;-67
2022/04/06 06:24:05;;;;;;;11.35;3.00;;;;;;;;;;5090076;28;20052;-67
2022/04/06 06:26:32;;;;;;;13.23;3.10;;;;;;;;;;5089092;28;20052;-67
2022/04/06 06:28:58;;;;;;;17.77;3.42;;;;;;;;;;5090012;28;20151;-67
2022/04/06 06:31:25;;;;;;;19.17;3.28;;;;;;;;;;5089403;28;20155;-67
2022/04/06 06:33:52;;;;;;;22.50;3.72;;;;;;;;;;5077641;28;20056;-67
2022/04/06 06:36:18;;;;;;;15.50;3.10;;;;;;;;;;5069143;28;20045;-67
2022/04/06 06:38:45;;;;;;;18.83;3.42;;;;;;;;;;5094402;28;20123;-67
2022/04/06 06:41:11;;;;;;;17.90;3.17;;;;;;;;;;5090843;27;20094;-66
2022/04/06 06:43:37;;;;;;;15.95;3.22;;;;;;;;;;5078666;28;20045;-66
2022/04/06 06:46:03;;;;;;;13.18;3.33;;;;;;;;;;5082889;28;20508;-66
2022/04/06 06:48:30;;;;;;;12.95;2.90;;;;;;;;;;5072722;28;20056;-68
2022/04/06 06:50:56;;;;;;;13.57;2.35;;;;;;;;;;5077172;28;20391;-67
2022/04/06 06:53:22;;;;;;;12.18;2.50;;;;;;;;;;5082773;28;20052;-67
2022/04/06 06:55:49;;;;;;;15.38;3.25;;;;;;;;;;5073191;28;20057;-67
2022/04/06 06:58:16;;;;;;;10.88;2.55;;;;;;;;;;5086199;28;20052;-67
2022/04/06 07:00:42;;;;;;;14.35;2.65;;;;;;;;;;5087837;28;20152;-67
2022/04/06 07:03:09;;;;;;;11.88;2.85;;;;;;;;;;5087582;28;20055;-67
2022/04/06 07:05:35;;;;;;;10.68;2.80;;;;;;;;;;5068265;28;20057;-68
2022/04/06 07:08:02;;;;;;;11.73;2.08;;;;;;;;;;5074116;28;20060;-67
2022/04/06 07:10:29;;;;;;;14.80;2.38;;;;;;;;;;5068667;28;20596;-66
2022/04/06 07:12:56;;;;;;;12.73;2.40;;;;;;;;;;5066436;28;20143;-66
2022/04/06 07:15:23;;;;;;;10.15;2.00;;;;;;;;;;5067027;28;20126;-66
2022/04/06 07:17:53;;;;;;;7.22;1.85;;;;;;;;;;5069178;28;20622;-67
2022/04/06 07:20:19;;;;;;;13.27;2.17;;;;;;;;;;5071582;28;20063;-69
2022/04/06 07:22:46;;;;;;;15.38;3.03;;;;;;;;;;5071603;28;20132;-69
2022/04/06 07:25:12;;;;;;;12.32;2.38;;;;;;;;;;5067765;28;20172;-70
2022/04/06 07:27:39;;;;;;;12.05;2.85;;;;;;;;;;5068067;28;20136;-70
2022/04/06 07:30:09;;;;;;;7.35;1.92;;;;;;;;;;5067828;28;20136;-70
2022/04/06 07:32:36;;;;;;;10.57;1.98;;;;;;;;;;5067965;28;20079;-69
2022/04/06 07:35:04;;;;;;;11.85;1.88;;;;;;;;;;5068133;28;20550;-69
2022/04/06 07:37:49;;;;;;;11.75;1.77;;;;;;;;;;5067975;28;20065;-70
2022/04/06 07:40:16;;;;;;;8.10;1.70;;;;;;;;;;5067380;28;20057;-69
2022/04/06 07:42:43;;;;;;;8.82;2.15;;;;;;;;;;5068276;28;20148;-70
2022/04/06 07:45:10;;;;;;;18.63;2.50;;;;;;;;;;5067677;28;20144;-70
2022/04/06 07:47:39;;;;;;;16.73;2.50;;;;;;;;;;5067687;28;20490;-69
2022/04/06 07:50:06;;;;;;;12.25;2.30;;;;;;;;;;5067263;28;20053;-70
2022/04/06 07:52:33;;;;;;;12.05;2.25;;;;;;;;;;5067416;28;20175;-70
2022/04/06 07:54:59;;;;;;;9.40;1.95;;;;;;;;;;5067723;28;20060;-70
2022/04/06 07:57:27;;;;;;;11.98;2.47;;;;;;;;;;5067322;28;20152;-70
2022/04/06 07:59:54;;;;;;;14.90;2.60;;;;;;;;;;5068113;28;20059;-70
2022/04/06 08:02:20;;;;;;;17.92;3.15;;;;;;;;;;5067224;28;20044;-70
2022/04/06 08:04:47;;;;;;;16.05;3.85;;;;;;;;;;5066964;28;20045;-70
2022/04/06 08:07:13;;;;;;;9.70;2.10;;;;;;;;;;5067742;28;20052;-70
2022/04/06 08:09:40;;;;;;;11.20;2.72;;;;;;;;;;5067469;28;20076;-70
2022/04/06 08:12:06;;;;;;;12.77;2.60;;;;;;;;;;5067021;28;20092;-70
2022/04/06 08:14:32;;;;;;;13.20;2.83;;;;;;;;;;5067401;28;20155;-70
2022/04/06 08:16:59;;;;;;;15.05;2.80;;;;;;;;;;5065481;28;20096;-70
2022/04/06 08:19:26;;;;;;;16.40;2.83;;;;;;;;;;5067787;28;20053;-70
2022/04/06 08:21:53;;;;;;;15.35;2.80;;;;;;;;;;5068124;28;20539;-70
2022/04/06 08:24:19;;;;;;;13.10;2.72;;;;;;;;;;5067272;28;20049;-69
2022/04/06 08:26:46;;;;;;;8.73;2.97;;;;;;;;;;5066796;28;20411;-70
2022/04/06 08:29:12;;;;;;;14.60;3.67;;;;;;;;;;5066629;28;20088;-69
2022/04/06 08:31:39;;;;;;;13.07;2.78;;;;;;;;;;5067343;28;20059;-69
2022/04/06 08:34:06;;;;;;;15.35;3.47;;;;;;;;;;5067442;28;20053;-69
2022/04/06 08:36:33;;;;;;;13.43;3.67;;;;;;;;;;5066832;28;20076;-69
2022/04/06 08:39:03;;;;;;;13.68;2.60;;;;;;;;;;5067411;28;20540;-69
2022/04/06 08:41:30;;;;;;;11.60;2.90;;;;;;;;;;5066629;28;20537;-69
2022/04/06 08:43:57;;;;;;;10.00;3.03;;;;;;;;;;5066671;28;20111;-70
2022/04/06 08:46:24;;;;;;;14.57;2.88;;;;;;;;;;5066406;28;20056;-69
2022/04/06 08:48:51;;;;;;;13.60;3.20;;;;;;;;;;5067191;28;20052;-70
2022/04/06 08:51:18;;;;;;;12.10;3.42;;;;;;;;;;5067065;28;20056;-69
2022/04/06 08:53:45;;;;;;;12.07;3.13;;;;;;;;;;5067201;28;20579;-69
2022/04/06 08:56:12;;;;;;;13.20;3.42;;;;;;;;;;5066846;28;20055;-69
2022/04/06 08:58:39;;;;;;;14.30;2.85;;;;;;;;;;5066807;28;20057;-70
2022/04/06 09:01:09;;;;;;;11.88;3.00;;;;;;;;;;5065626;28;20537;-69
2022/04/06 09:03:41;;;;;;;12.00;3.65;;;;;;;;;;5066556;28;20060;-70
2022/04/06 09:06:18;;;;;;;19.08;3.75;;;;;;;;;;5067761;28;20064;-70
2022/04/06 09:08:49;;;;;;;15.88;3.83;;;;;;;;;;5066860;28;20586;-70
2022/04/06 09:11:18;;;;;;;16.75;4.68;;;;;;;;;;5066230;28;20127;-70
2022/04/06 09:13:56;;;;;;;14.02;3.70;;;;;;;;;;5067763;28;20064;-70
2022/04/06 09:16:23;;;;;;;;;;;;;;;;;;5070732;28;20057;-70
2022/04/06 09:18:50;;;;;;;15.18;4.20;;;;;;;;;;5069480;28;42741;-70
2022/04/06 09:21:18;;;;;;;14.32;5.68;;;;;;;;;;5070059;28;20142;-70
2022/04/06 09:23:49;;;;;;;13.98;4.55;;;;;;;;;;5070081;28;20080;-70
2022/04/06 09:26:22;;;;;;;14.95;4.57;;;;;;;;;;5070001;28;20922;-70
2022/04/06 09:28:49;;;;;;;17.10;5.95;;;;;;;;;;5069985;28;20081;-70
2022/04/06 09:31:17;;;;;;;18.48;5.80;;;;;;;;;;5069536;28;20079;-70
2022/04/06 09:33:58;;;;;;;18.65;5.10;;;;;;;;;;5070074;28;20061;-70
2022/04/06 09:36:32;;;;;;;19.95;5.32;;;;;;;;;;5069304;28;20140;-70
2022/04/06 09:39:01;;;;;;;14.18;4.90;;;;;;;;;;5069222;28;20506;-70
2022/04/06 09:41:30;;;;;;;13.40;5.07;;;;;;;;;;5069750;28;20147;-70
2022/04/06 09:44:08;;;;;;;16.83;5.75;;;;;;;;;;5069220;28;20144;-69
2022/04/06 09:49:26;;;;;;;15.65;5.78;;;;;;;;;;5070575;28;20057;-69
2022/04/06 09:51:53;;;;;;;14.40;5.60;;;;;;;;;;5069914;28;20151;-70
2022/04/06 09:54:21;;;;;;;15.18;5.28;;;;;;;;;;5069646;28;20067;-69
2022/04/06 09:56:47;;;;;;;15.30;4.88;;;;;;;;;;5069515;28;20068;-70
2022/04/06 09:59:15;;;;;;;15.98;5.47;;;;;;;;;;5069470;28;20729;-70
2022/04/06 10:01:44;;;;;;;14.63;5.40;;;;;;;;;;5067773;28;20053;-69
2022/04/06 10:04:17;;;;;;;16.02;6.13;;;;;;;;;;5069045;28;20060;-70
2022/04/06 10:06:44;;;;;;;;;;;;;;;;;;5069918;28;20048;-69
2022/04/06 10:09:11;;;;;;;17.70;5.78;;;;;;;;;;5068450;28;44155;-69
2022/04/06 10:11:38;;;;;;;20.52;6.63;;;;;;;;;;5070353;28;20049;-70
2022/04/06 10:14:05;;;;;;;17.05;7.20;;;;;;;;;;5069232;28;20056;-70
2022/04/06 10:16:36;;;;;;;18.33;6.30;;;;;;;;;;5068670;28;20099;-70
2022/04/06 10:19:03;;;;;;;21.48;6.75;;;;;;;;;;5068666;28;20167;-69
2022/04/06 10:21:41;;;;;;;16.37;6.60;;;;;;;;;;5069581;28;20111;-70
2022/04/06 10:24:10;;;;;;;20.50;7.30;;;;;;;;;;5067712;28;20135;-70
2022/04/06 10:26:44;;;;;;;20.20;7.28;;;;;;;;;;5069125;28;20049;-70
2022/04/06 10:29:11;;;;;;;17.67;6.70;;;;;;;;;;5068772;28;20064;-70
2022/04/06 10:31:37;;;;;;;21.48;6.43;;;;;;;;;;5067743;28;20916;-70
2022/04/06 10:34:19;;;;;;;17.10;6.80;;;;;;;;;;5068643;28;20154;-69
2022/04/06 10:37:05;;;;;;;16.85;6.35;;;;;;;;;;5068610;28;20095;-70
2022/04/06 10:39:33;;;;;;;16.77;6.80;;;;;;;;;;5068031;28;20055;-70
2022/04/06 10:42:15;;;;;;;17.73;6.70;;;;;;;;;;5068350;28;20077;-69
2022/04/06 10:44:43;;;;;;;15.32;5.90;;;;;;;;;;5068824;28;20108;-70
2022/04/06 10:47:12;;;;;;;23.83;6.43;;;;;;;;;;5069280;28;20051;-69
2022/04/06 10:49:40;;;;;;;16.05;6.68;;;;;;;;;;5069030;28;20156;-69
2022/04/06 10:52:19;;;;;;;17.48;6.70;;;;;;;;;;5069029;28;20053;-70
2022/04/06 10:54:46;;;;;;;17.45;6.18;;;;;;;;;;5069003;28;20140;-70
2022/04/06 10:57:12;;;;;;;19.27;5.97;;;;;;;;;;5068935;28;20142;-69
2022/04/06 10:59:38;;;;;;;15.75;5.40;;;;;;;;;;5068028;28;20140;-69
2022/04/06 11:02:14;;;;;;;16.38;6.28;;;;;;;;;;5068730;28;20075;-69
2022/04/06 11:04:41;;;;;;;15.18;5.93;;;;;;;;;;5068490;28;20059;-69
2022/04/06 11:07:08;;;;;;;15.98;6.03;;;;;;;;;;5068326;28;20081;-70
2022/04/06 11:12:27;;;;;;;16.00;6.43;;;;;;;;;;5068690;28;20499;-70
2022/04/06 11:14:59;;;;;;;18.13;5.80;;;;;;;;;;5068670;28;20171;-70
2022/04/06 11:17:36;;;;;;;18.63;6.43;;;;;;;;;;5068131;28;20061;-70
2022/04/06 11:20:13;;;;;;;20.55;5.95;;;;;;;;;;5068484;28;20134;-70
2022/04/06 11:22:42;;;;;;;15.50;5.43;;;;;;;;;;5068321;28;20057;-70
2022/04/06 11:25:16;;;;;;;14.98;5.30;;;;;;;;;;5068155;28;20145;-70
2022/04/06 11:27:45;;;;;;;18.90;6.22;;;;;;;;;;5068177;28;20124;-69
2022/04/06 11:30:13;;;;;;;15.23;6.05;;;;;;;;;;5067918;28;20148;-70
2022/04/06 11:32:40;;;;;;;16.63;5.50;;;;;;;;;;5068548;28;20560;-70
2022/04/06 11:35:07;;;;;;;20.42;5.70;;;;;;;;;;5067981;28;20136;-69
2022/04/06 11:37:49;;;;;;;17.13;5.32;;;;;;;;;;5066960;28;20140;-69
2022/04/06 11:40:17;;;;;;;19.65;5.70;;;;;;;;;;5068127;28;20049;-71
2022/04/06 11:42:53;;;;;;;17.45;5.20;;;;;;;;;;5068298;28;20604;-70
2022/04/06 11:45:22;;;;;;;20.02;6.40;;;;;;;;;;5067543;28;20087;-69
2022/04/06 11:47:57;;;;;;;18.23;5.07;;;;;;;;;;5067671;28;20127;-69
2022/04/06 11:50:30;;;;;;;9.90;4.22;;;;;;;;;;5068003;28;20152;-70
2022/04/06 11:53:15;;;;;;;12.18;5.05;;;;;;;;;;5067931;28;20060;-69
2022/04/06 11:55:47;;;;;;;15.07;4.53;;;;;;;;;;5067811;28;20168;-70
2022/04/06 11:58:33;;;;;;;14.88;5.05;;;;;;;;;;5067028;28;20057;-70
2022/04/06 12:01:00;;;;;;;14.30;4.82;;;;;;;;;;5067675;28;20064;-70
2022/04/06 12:03:27;;;;;;;13.63;5.00;;;;;;;;;;5067863;28;20055;-69
2022/04/06 12:05:54;;;;;;;11.82;5.20;;;;;;;;;;5067665;28;20052;-70
2022/04/06 12:08:21;;;;;;;12.05;5.55;;;;;;;;;;5066966;28;20053;-69
2022/04/06 12:10:52;;;;;;;16.65;5.20;;;;;;;;;;5067928;28;20057;-69
2022/04/06 12:13:19;;;;;;;19.05;5.72;;;;;;;;;;5067497;28;20057;-70
2022/04/06 12:15:48;;;;;;;14.32;5.88;;;;;;;;;;5066960;28;20084;-69
2022/04/06 12:18:16;;;;;;;15.32;5.78;;;;;;;;;;5067455;28;20119;-69
2022/04/06 12:20:42;;;;;;;11.82;5.43;;;;;;;;;;5067069;28;20139;-69
2022/04/06 12:23:08;;;;;;;10.70;5.40;;;;;;;;;;5066819;28;20076;-69
2022/04/06 12:25:35;;;;;;;14.48;5.55;;;;;;;;;;5067512;28;20143;-70
2022/04/06 12:28:11;;;;;;;16.63;5.97;;;;;;;;;;5067240;28;20139;-69
2022/04/06 12:30:52;;;;;;;13.10;6.15;;;;;;;;;;5066596;28;20091;-69
2022/04/06 12:33:31;;;;;;;15.38;5.88;;;;;;;;;;5067323;28;20055;-69
2022/04/06 12:36:11;;;;;;;15.75;5.82;;;;;;;;;;5067304;28;20057;-69
2022/04/06 12:38:38;;;;;;;13.07;5.85;;;;;;;;;;5067052;28;20152;-69
2022/04/06 12:41:04;;;;;;;15.85;6.40;;;;;;;;;;5067482;28;20160;-69
2022/04/06 12:43:45;;;;;;;17.13;6.45;;;;;;;;;;5066828;28;20505;-69
2022/04/06 12:46:12;;;;;;;13.93;5.63;;;;;;;;;;5066486;28;20128;-69
2022/04/06 12:48:39;;;;;;;15.65;5.32;;;;;;;;;;5067437;28;20049;-70
2022/04/06 12:51:25;;;;;;;10.00;5.22;;;;;;;;;;5066900;28;20064;-69
2022/04/06 12:53:51;;;;;;;13.75;4.82;;;;;;;;;;5066922;28;20498;-69
2022/04/06 12:56:23;;;;;;;13.73;5.40;;;;;;;;;;5067164;28;20059;-69
2022/04/06 12:59:11;;;;;;;8.40;4.40;;;;;;;;;;5067645;28;20056;-69
2022/04/06 13:01:44;;;;;;;10.85;4.75;;;;;;;;;;5066723;28;20045;-69
2022/04/06 13:04:11;;;;;;;8.45;4.63;;;;;;;;;;5066566;28;20052;-70
2022/04/06 13:06:37;;;;;;;9.40;4.32;;;;;;;;;;5066238;28;20140;-69
2022/04/06 13:09:04;;;;;;;10.73;3.78;;;;;;;;;;5067383;28;20124;-69
2022/04/06 13:11:48;;;;;;;10.82;3.92;;;;;;;;;;5067158;28;20065;-69
2022/04/06 13:14:14;;;;;;;11.13;3.90;;;;;;;;;;5066826;28;20144;-69
2022/04/06 13:16:41;;;;;;;9.43;4.05;;;;;;;;;;5066403;28;20056;-69
2022/04/06 13:19:07;;;;;;;14.32;4.30;;;;;;;;;;5066428;28;20143;-69
2022/04/06 13:21:33;;;;;;;13.82;4.40;;;;;;;;;;5066354;28;20123;-69
2022/04/06 13:24:06;;;;;;;12.48;4.68;;;;;;;;;;5066599;28;20053;-69
2022/04/06 13:26:32;;;;;;;8.77;3.83;;;;;;;;;;5064986;28;20529;-70
2022/04/06 13:28:59;;;;;;;11.75;4.70;;;;;;;;;;5066568;28;20061;-69
2022/04/06 13:31:28;;;;;;;8.77;4.50;;;;;;;;;;5066389;28;20057;-69
2022/04/06 13:33:55;;;;;;;20.00;5.20;;;;;;;;;;5066624;28;20045;-70
2022/04/06 13:36:21;;;;;;;17.30;5.00;;;;;;;;;;5066126;28;20053;-70
2022/04/06 13:38:48;;;;;;;8.32;4.68;;;;;;;;;;5066841;28;20107;-69
2022/04/06 13:41:14;;;;;;;11.45;4.78;;;;;;;;;;5064582;28;20153;-70
2022/04/06 13:43:41;;;;;;;12.38;4.90;;;;;;;;;;5066281;28;20167;-69
2022/04/06 13:46:07;;;;;;;16.83;5.20;;;;;;;;;;5065379;28;20205;-69
2022/04/06 13:48:34;;;;;;;9.77;4.78;;;;;;;;;;5065614;28;20056;-69
2022/04/06 13:51:01;;;;;;;10.10;4.88;;;;;;;;;;5066309;28;20168;-69
2022/04/06 13:53:27;;;;;;;8.45;4.28;;;;;;;;;;5066166;28;20259;-69
2022/04/06 13:55:53;;;;;;;9.00;4.40;;;;;;;;;;5066736;28;20530;-69
2022/04/06 13:58:20;;;;;;;12.50;4.88;;;;;;;;;;5065922;28;20049;-69
2022/04/06 14:00:46;;;;;;;10.20;5.15;;;;;;;;;;5068379;28;20171;-69
2022/04/06 14:03:14;;;;;;;7.72;3.67;;;;;;;;;;5070160;28;20549;-69
2022/04/06 14:05:41;;;;;;;8.13;4.28;;;;;;;;;;5070216;28;20179;-69
2022/04/06 14:08:09;;;;;;;10.10;4.30;;;;;;;;;;5069490;28;20057;-69
2022/04/06 14:10:36;;;;;;;8.40;4.65;;;;;;;;;;5069315;28;20055;-69
2022/04/06 14:13:04;;;;;;;8.38;4.95;;;;;;;;;;5068869;28;20096;-69
2022/04/06 14:15:31;;;;;;;9.95;4.93;;;;;;;;;;5069474;28;20060;-69
2022/04/06 14:17:57;;;;;;;9.52;4.72;;;;;;;;;;5069099;28;20573;-70
2022/04/06 14:20:24;;;;;;;8.73;4.97;;;;;;;;;;5069196;28;20140;-70
2022/04/06 14:22:50;;;;;;;11.38;5.13;;;;;;;;;;5069020;28;20056;-70
2022/04/06 14:25:19;;;;;;;8.70;4.85;;;;;;;;;;5068435;28;20526;-70
2022/04/06 14:27:46;;;;;;;9.40;4.95;;;;;;;;;;5069605;28;20056;-70
2022/04/06 14:30:13;;;;;;;12.85;5.72;;;;;;;;;;5068934;28;20103;-70
2022/04/06 14:32:40;;;;;;;11.38;5.18;;;;;;;;;;5069338;28;20144;-70
2022/04/06 14:35:07;;;;;;;10.77;5.43;;;;;;;;;;5069178;28;20087;-70
2022/04/06 14:37:33;;;;;;;10.95;5.43;;;;;;;;;;5069378;28;20158;-71
2022/04/06 14:39:59;;;;;;;12.60;5.25;;;;;;;;;;5068730;28;20056;-70
2022/04/06 14:42:26;;;;;;;15.55;5.47;;;;;;;;;;5068403;28;20053;-70
2022/04/06 14:44:53;;;;;;;12.65;5.75;;;;;;;;;;5068739;28;20598;-70